KPUC

Carbon County Regional / Buck Davis Field Airport

Price, Utah, USA
METAR KPUC 212253Z AUTO 27014G26KT 10SM CLR 33/M08 A3003 RMK AO2 PK WND 30026/2245 SLP072 T03281078
Observed Flight Rules
Jun-21 @ 22:53 UTC (an hour ago) Visual Flight Rules
Wind Visibility Clouds
270° at 14 knots
 Gusting to 26 knots
10 miles
  • Clear skies
Temperatures Readings
Current 33°C / 91°F
Dewpoint -8°C / 18°F
Humidity 7%
Altimeter 30.03" Hg
Pressure 1007.2 hPa
Elevation 2091
METAR KPUC 212253Z AUTO 27014G26KT 10SM CLR 33/M08 A3003 RMK AO2 PK WND 30026/2245 SLP072 T03281078
Observed Flight Rules
Jun-21 @ 22:53 UTC
(an hour ago)
VFR
Wind Visibility
270° at 14 knots
 Gusting to 26 knots
10 miles
Clouds
  • Clear skies
Temperature Dewpoint
33°C / 91°F -8°C / 18°F
Humidity Altimeter Pressure
7% 30.03" Hg 1007.2 hPa